createdAt,value
2023-05-12T00:00:48.787Z,4.10
2023-05-12T00:03:16.718Z,4.13
2023-05-12T00:05:44.897Z,4.35
2023-05-12T00:08:12.848Z,4.07
2023-05-12T00:10:40.994Z,3.60
2023-05-12T00:13:10.525Z,4.00
2023-05-12T00:15:38.780Z,4.28
2023-05-12T00:18:06.929Z,3.50
2023-05-12T00:20:34.971Z,3.83
2023-05-12T00:23:02.866Z,3.80
2023-05-12T00:25:30.723Z,3.78
2023-05-12T00:27:58.714Z,3.75
2023-05-12T00:30:28.285Z,4.20
2023-05-12T00:32:56.172Z,4.40
2023-05-12T00:35:24.232Z,3.70
2023-05-12T00:37:52.081Z,4.63
2023-05-12T00:40:20.441Z,4.70
2023-05-12T00:42:48.363Z,4.53
2023-05-12T00:45:16.267Z,4.30
2023-05-12T00:47:46.418Z,4.55
2023-05-12T00:50:15.187Z,4.70
2023-05-12T00:52:43.508Z,5.17
2023-05-12T00:55:11.490Z,4.60
2023-05-12T00:57:39.644Z,5.17
2023-05-12T01:00:08.946Z,4.70
2023-05-12T01:02:37.484Z,4.80
2023-05-12T01:05:09.815Z,4.97
2023-05-12T01:07:39.944Z,4.82
2023-05-12T01:10:18.870Z,4.90
2023-05-12T01:12:47.428Z,4.60
2023-05-12T01:15:15.423Z,4.72
2023-05-12T01:17:48.109Z,4.93
2023-05-12T01:20:19.946Z,4.90
2023-05-12T01:22:50.289Z,4.50
2023-05-12T01:25:20.342Z,4.67
2023-05-12T01:27:50.618Z,5.00
2023-05-12T01:30:20.462Z,4.70
2023-05-12T01:32:48.770Z,4.40
2023-05-12T01:35:16.790Z,5.00
2023-05-12T01:37:45.737Z,4.78
2023-05-12T01:40:14.076Z,4.50
2023-05-12T01:42:44.004Z,4.47
2023-05-12T01:45:13.412Z,4.70
2023-05-12T01:47:41.340Z,4.25
2023-05-12T01:50:09.975Z,4.43
2023-05-12T01:52:37.883Z,4.60
2023-05-12T01:55:07.194Z,4.10
2023-05-12T01:57:35.190Z,4.40
2023-05-12T02:00:03.146Z,4.60
2023-05-12T02:02:34.430Z,4.68
2023-05-12T02:05:02.382Z,4.28
2023-05-12T02:07:30.288Z,4.53
2023-05-12T02:09:58.505Z,4.40
2023-05-12T02:12:26.542Z,4.88
2023-05-12T02:14:54.472Z,4.30
2023-05-12T02:17:25.028Z,4.80
2023-05-12T02:19:54.504Z,4.10
2023-05-12T02:22:22.436Z,4.37
2023-05-12T02:24:50.371Z,4.00
2023-05-12T02:27:18.248Z,4.22
2023-05-12T02:29:46.774Z,4.00
2023-05-12T02:32:14.718Z,4.30
2023-05-12T02:34:42.580Z,4.70
2023-05-12T02:37:11.876Z,4.53
2023-05-12T02:39:39.766Z,4.10
2023-05-12T02:42:08.429Z,4.43
2023-05-12T02:44:36.278Z,4.30
2023-05-12T02:47:04.208Z,4.75
2023-05-12T02:49:32.389Z,4.25
2023-05-12T02:52:00.396Z,4.28
2023-05-12T02:54:29.612Z,4.30
2023-05-12T02:56:58.250Z,3.93
2023-05-12T02:59:26.324Z,4.40
2023-05-12T03:01:54.335Z,3.90
2023-05-12T03:04:22.255Z,4.30
2023-05-12T03:06:50.228Z,4.90
2023-05-12T03:09:18.160Z,4.53
2023-05-12T03:11:47.409Z,5.10
2023-05-12T03:14:15.331Z,4.60
2023-05-12T03:16:43.373Z,4.57
2023-05-12T03:19:11.351Z,4.57
2023-05-12T03:21:39.409Z,3.97
2023-05-12T03:24:07.891Z,4.47
2023-05-12T03:26:35.955Z,4.85
2023-05-12T03:29:05.189Z,4.15
2023-05-12T03:31:33.657Z,3.92
2023-05-12T03:34:01.686Z,4.35
2023-05-12T03:36:29.554Z,4.50
2023-05-12T03:38:57.442Z,3.75
2023-05-12T03:41:25.422Z,4.70
2023-05-12T03:43:53.400Z,4.38
2023-05-12T03:46:22.968Z,4.13
2023-05-12T03:48:50.983Z,3.92
2023-05-12T03:51:18.943Z,4.00
2023-05-12T03:53:47.763Z,3.70
2023-05-12T03:56:16.946Z,3.67
2023-05-12T03:58:46.431Z,3.50
2023-05-12T04:01:14.385Z,3.30
2023-05-12T04:03:43.718Z,3.20
2023-05-12T04:06:11.764Z,3.10
2023-05-12T04:08:41.871Z,3.10
2023-05-12T04:11:10.702Z,2.63
2023-05-12T04:13:38.612Z,3.63
2023-05-12T04:16:07.324Z,3.42
2023-05-12T04:18:35.786Z,2.92
2023-05-12T04:21:05.446Z,3.40
2023-05-12T04:23:33.334Z,3.55
2023-05-12T04:26:03.984Z,3.50
2023-05-12T04:28:31.939Z,2.95
2023-05-12T04:31:04.353Z,3.58
2023-05-12T04:33:32.544Z,3.00
2023-05-12T04:36:00.804Z,3.40
2023-05-12T04:38:30.035Z,3.53
2023-05-12T04:41:00.861Z,3.55
2023-05-12T04:46:00.549Z,3.35
2023-05-12T04:48:29.007Z,4.23
2023-05-12T04:50:57.003Z,4.50
2023-05-12T04:53:25.000Z,4.00
2023-05-12T04:55:54.422Z,4.60
2023-05-12T04:58:22.324Z,5.00
2023-05-12T05:00:50.226Z,5.20
2023-05-12T05:03:18.202Z,6.15
2023-05-12T05:05:46.125Z,6.63
2023-05-12T05:08:14.125Z,8.27
2023-05-12T05:10:42.084Z,7.80
2023-05-12T05:13:11.327Z,9.40
2023-05-12T05:15:39.295Z,9.40
2023-05-12T05:18:07.406Z,10.13
2023-05-12T05:20:36.043Z,10.95
2023-05-12T05:23:09.003Z,10.82
2023-05-12T05:25:37.071Z,11.98
2023-05-12T05:28:04.997Z,13.73
2023-05-12T05:30:34.296Z,13.57
2023-05-12T05:33:02.386Z,13.93
2023-05-12T05:35:31.279Z,14.23
2023-05-12T05:37:59.296Z,13.60
2023-05-12T05:40:27.341Z,15.45
2023-05-12T05:42:55.261Z,15.90
2023-05-12T05:45:23.126Z,15.05
2023-05-12T05:47:53.292Z,15.80
2023-05-12T05:50:21.583Z,15.60
2023-05-12T05:52:49.781Z,15.70
2023-05-12T05:55:17.845Z,16.40
2023-05-12T05:57:46.380Z,15.90
2023-05-12T06:00:15.586Z,15.98
2023-05-12T06:02:43.640Z,16.10
2023-05-12T06:05:14.229Z,15.07
2023-05-12T06:07:42.417Z,15.90
2023-05-12T06:10:10.437Z,17.05
2023-05-12T06:12:38.343Z,15.93
2023-05-12T06:15:07.325Z,15.80
2023-05-12T06:17:35.269Z,16.30
2023-05-12T06:20:05.319Z,16.55
2023-05-12T06:22:35.062Z,17.25
2023-05-12T06:25:03.831Z,16.17
2023-05-12T06:27:31.748Z,15.93
2023-05-12T06:29:59.582Z,16.55
2023-05-12T06:32:27.585Z,17.00
2023-05-12T06:34:55.522Z,16.27
2023-05-12T06:37:23.468Z,15.73
2023-05-12T06:39:52.828Z,16.80
2023-05-12T06:42:20.742Z,16.77
2023-05-12T06:44:48.638Z,17.25
2023-05-12T06:47:16.700Z,17.67
2023-05-12T06:49:44.584Z,16.73
2023-05-12T06:52:12.441Z,17.50
2023-05-12T06:54:40.342Z,17.10
2023-05-12T06:57:09.734Z,16.92
2023-05-12T06:59:37.580Z,17.98
2023-05-12T07:02:05.823Z,18.00
2023-05-12T07:04:34.708Z,16.40
2023-05-12T07:07:02.677Z,16.48
2023-05-12T07:09:30.594Z,17.27
2023-05-12T07:11:59.145Z,16.80
2023-05-12T07:14:28.364Z,18.23
2023-05-12T07:16:56.262Z,18.50
2023-05-12T07:19:24.231Z,17.40
2023-05-12T07:21:52.255Z,17.85
2023-05-12T07:24:20.235Z,17.48
2023-05-12T07:26:48.216Z,18.60
2023-05-12T07:29:16.127Z,17.52
2023-05-12T07:31:45.617Z,18.20
2023-05-12T07:34:13.653Z,17.58
2023-05-12T07:36:41.484Z,18.40
2023-05-12T07:39:09.347Z,18.05
2023-05-12T07:41:39.464Z,17.58
2023-05-12T07:44:07.528Z,18.13
2023-05-12T07:46:36.269Z,18.95
2023-05-12T07:49:07.310Z,18.05
2023-05-12T07:51:35.305Z,19.85
2023-05-12T07:54:03.203Z,18.95
2023-05-12T07:56:31.076Z,19.23
2023-05-12T07:58:58.967Z,19.03
2023-05-12T08:01:26.816Z,18.60
2023-05-12T08:03:54.751Z,19.00
2023-05-12T08:06:25.031Z,17.90
2023-05-12T08:08:53.499Z,17.88
2023-05-12T08:11:21.866Z,18.92
2023-05-12T08:13:49.779Z,18.20
2023-05-12T08:16:17.656Z,18.48
2023-05-12T08:18:45.776Z,19.90
2023-05-12T08:21:13.733Z,19.20
2023-05-12T08:23:43.050Z,19.52
2023-05-12T08:26:10.951Z,18.77
2023-05-12T08:28:39.844Z,18.50
2023-05-12T08:31:07.862Z,17.67
2023-05-12T08:33:36.444Z,18.30
2023-05-12T08:36:04.936Z,17.95
2023-05-12T08:38:33.947Z,18.02
2023-05-12T08:41:13.139Z,17.92
2023-05-12T08:43:44.850Z,18.25
2023-05-12T08:46:13.590Z,17.88
2023-05-12T08:48:42.713Z,17.67
2023-05-12T08:51:12.792Z,17.58
2023-05-12T08:53:42.108Z,17.33
2023-05-12T08:58:45.526Z,16.80
2023-05-12T09:01:14.927Z,17.83
2023-05-12T09:03:43.363Z,18.50
2023-05-12T09:06:12.635Z,17.00
2023-05-12T09:08:42.274Z,17.38
2023-05-12T09:11:13.570Z,17.77
2023-05-12T09:13:53.573Z,17.58
2023-05-12T09:16:25.386Z,17.27
2023-05-12T09:18:54.849Z,16.98
2023-05-12T09:21:23.069Z,16.63
2023-05-12T09:23:55.017Z,17.08
2023-05-12T09:26:25.182Z,16.60
2023-05-12T09:28:54.806Z,16.90
2023-05-12T09:31:24.703Z,17.85
2023-05-12T09:33:53.101Z,18.47
2023-05-12T09:36:22.288Z,16.83
2023-05-12T09:39:00.474Z,15.80
2023-05-12T09:41:29.869Z,16.95
2023-05-12T09:43:58.051Z,17.63
2023-05-12T09:46:26.382Z,17.27
2023-05-12T09:48:57.886Z,16.90
2023-05-12T09:51:27.061Z,16.70
2023-05-12T09:53:54.907Z,17.02
2023-05-12T09:56:22.875Z,16.55
2023-05-12T09:58:52.505Z,17.25
2023-05-12T10:01:23.915Z,16.85
2023-05-12T10:03:54.760Z,16.65
2023-05-12T10:06:26.490Z,16.38
2023-05-12T10:09:03.418Z,14.27
2023-05-12T10:11:31.638Z,14.50
2023-05-12T10:14:01.573Z,15.07
2023-05-12T10:16:30.051Z,14.55
2023-05-12T10:18:57.977Z,15.43
2023-05-12T10:21:26.859Z,15.02
2023-05-12T10:23:55.641Z,13.63
2023-05-12T10:26:24.533Z,14.45
2023-05-12T10:28:53.731Z,14.40
2023-05-12T10:31:23.628Z,13.85
2023-05-12T10:33:59.377Z,13.73
2023-05-12T10:36:27.880Z,14.18
2023-05-12T10:38:56.507Z,13.25
2023-05-12T10:41:31.377Z,13.43
2023-05-12T10:43:59.447Z,12.63
2023-05-12T10:46:30.018Z,13.18
2023-05-12T10:49:00.479Z,14.30
2023-05-12T10:51:30.050Z,14.15
2023-05-12T10:54:00.054Z,14.90
2023-05-12T10:56:30.795Z,13.80
2023-05-12T10:59:10.172Z,15.60
2023-05-12T11:01:41.180Z,14.43
2023-05-12T11:04:14.505Z,14.65
2023-05-12T11:06:45.243Z,15.40
2023-05-12T11:09:15.454Z,14.15
2023-05-12T11:11:45.773Z,14.38
2023-05-12T11:14:15.685Z,14.57
2023-05-12T11:16:46.918Z,13.70
2023-05-12T11:19:15.088Z,14.55
2023-05-12T11:21:43.863Z,13.70
2023-05-12T11:24:15.239Z,14.65
2023-05-12T11:26:43.227Z,13.88
2023-05-12T11:29:11.217Z,15.60
2023-05-12T11:31:39.795Z,15.25
2023-05-12T11:34:12.460Z,15.63
2023-05-12T11:36:43.662Z,16.00
2023-05-12T11:39:16.640Z,15.77
2023-05-12T11:41:44.926Z,14.75
2023-05-12T11:44:17.193Z,15.18
2023-05-12T11:46:56.099Z,14.50
2023-05-12T11:49:25.554Z,13.75
2023-05-12T11:51:54.833Z,13.75
2023-05-12T11:54:23.930Z,14.13
2023-05-12T11:56:53.244Z,12.90
2023-05-12T11:59:29.309Z,13.53
2023-05-12T12:01:58.067Z,13.70
2023-05-12T12:04:41.680Z,14.32
2023-05-12T12:07:10.086Z,13.27
2023-05-12T12:09:41.550Z,13.30
2023-05-12T12:12:11.096Z,12.70
2023-05-12T12:14:41.366Z,15.15
2023-05-12T12:17:09.236Z,13.32
2023-05-12T12:19:37.078Z,13.73
2023-05-12T12:22:06.410Z,13.23
2023-05-12T12:24:34.354Z,12.60
2023-05-12T12:27:02.290Z,13.80
2023-05-12T12:29:30.249Z,14.52
2023-05-12T12:31:58.129Z,14.52
2023-05-12T12:34:26.037Z,15.23
2023-05-12T12:36:53.909Z,15.98
2023-05-12T12:39:24.003Z,14.93
2023-05-12T12:41:51.949Z,14.82
2023-05-12T12:44:19.860Z,15.77
2023-05-12T12:46:47.956Z,16.27
2023-05-12T12:49:16.009Z,14.95
2023-05-12T12:51:46.912Z,14.80
2023-05-12T12:54:15.461Z,14.07
2023-05-12T12:56:45.251Z,14.90
2023-05-12T12:59:13.150Z,13.93
2023-05-12T13:01:41.013Z,15.40
2023-05-12T13:04:08.907Z,14.35
2023-05-12T13:06:36.900Z,15.63
2023-05-12T13:09:05.256Z,16.30
2023-05-12T13:11:33.331Z,14.85
2023-05-12T13:14:04.434Z,15.35
2023-05-12T13:16:32.604Z,14.70
2023-05-12T13:19:00.646Z,14.17
2023-05-12T13:21:28.951Z,15.88
2023-05-12T13:23:56.801Z,15.35
2023-05-12T13:26:24.641Z,13.50
2023-05-12T13:28:52.525Z,13.38
2023-05-12T13:31:21.877Z,13.73
2023-05-12T13:33:49.871Z,12.43
2023-05-12T13:36:17.772Z,13.90
2023-05-12T13:38:48.700Z,12.63
2023-05-12T13:41:16.997Z,12.07
2023-05-12T13:43:44.956Z,13.68
2023-05-12T13:46:12.941Z,13.70
2023-05-12T13:48:42.581Z,13.13
2023-05-12T13:51:10.721Z,12.82
2023-05-12T13:53:39.611Z,12.47
2023-05-12T13:56:08.522Z,11.80
2023-05-12T13:58:36.452Z,11.50
2023-05-12T14:01:04.999Z,11.55
2023-05-12T14:03:33.617Z,12.50
2023-05-12T14:06:02.896Z,12.63
2023-05-12T14:08:31.381Z,13.43
2023-05-12T14:10:59.381Z,13.20
2023-05-12T14:13:27.956Z,14.30
2023-05-12T14:15:56.380Z,13.73
2023-05-12T14:18:25.871Z,13.45
2023-05-12T14:20:54.040Z,13.20
2023-05-12T14:23:23.374Z,14.70
2023-05-12T14:25:51.437Z,14.33
2023-05-12T14:28:19.418Z,14.90
2023-05-12T14:30:48.749Z,15.57
2023-05-12T14:33:16.696Z,16.70
2023-05-12T14:35:52.921Z,14.75
2023-05-12T14:38:28.952Z,11.07
2023-05-12T14:40:56.868Z,10.63
2023-05-12T14:43:24.779Z,11.30
2023-05-12T14:45:54.609Z,10.98
2023-05-12T14:48:23.432Z,11.85
2023-05-12T14:50:53.308Z,11.23
2023-05-12T14:53:21.398Z,11.65
2023-05-12T14:55:51.581Z,11.27
2023-05-12T14:58:21.654Z,11.10
2023-05-12T15:00:51.172Z,11.07
2023-05-12T15:03:20.655Z,9.68
2023-05-12T15:06:04.782Z,9.27
2023-05-12T15:08:34.571Z,8.40
2023-05-12T15:11:03.979Z,8.18
2023-05-12T15:13:31.927Z,9.02
2023-05-12T15:16:00.036Z,8.32
2023-05-12T15:18:27.928Z,8.50
2023-05-12T15:20:55.971Z,8.07
2023-05-12T15:23:23.906Z,7.10
2023-05-12T15:25:51.905Z,8.00
2023-05-12T15:28:21.263Z,8.68
2023-05-12T15:30:56.409Z,8.60
2023-05-12T15:33:24.785Z,8.93
2023-05-12T15:35:52.695Z,9.00
2023-05-12T15:38:20.593Z,7.68
2023-05-12T15:40:49.050Z,8.80
2023-05-12T15:43:18.046Z,8.40
2023-05-12T15:45:47.304Z,8.55
2023-05-12T15:48:15.222Z,8.18
2023-05-12T15:50:43.169Z,7.90
2023-05-12T15:53:11.172Z,8.43
2023-05-12T15:55:39.078Z,8.27
2023-05-12T15:58:08.278Z,7.80
2023-05-12T16:00:36.388Z,8.10
2023-05-12T16:03:05.954Z,8.38
2023-05-12T16:05:37.796Z,8.50
2023-05-12T16:08:05.717Z,9.27
2023-05-12T16:10:34.056Z,8.25
2023-05-12T16:13:01.964Z,9.02
2023-05-12T16:15:29.864Z,9.35
2023-05-12T16:17:57.786Z,9.10
2023-05-12T16:20:27.029Z,8.57
2023-05-12T16:22:55.000Z,8.68
2023-05-12T16:25:23.060Z,7.80
2023-05-12T16:27:51.175Z,8.20
2023-05-12T16:30:20.141Z,8.07
2023-05-12T16:32:49.649Z,8.48
2023-05-12T16:35:17.743Z,7.57
2023-05-12T16:37:47.264Z,7.50
2023-05-12T16:40:15.799Z,7.20
2023-05-12T16:42:43.762Z,6.30
2023-05-12T16:45:13.486Z,4.82
2023-05-12T16:47:41.394Z,3.70
2023-05-12T16:50:10.506Z,3.20
2023-05-12T16:52:38.387Z,3.97
2023-05-12T16:55:08.727Z,3.50
2023-05-12T16:57:37.317Z,2.72
2023-05-12T17:00:06.694Z,2.80
2023-05-12T17:02:34.699Z,3.10
2023-05-12T17:05:02.771Z,3.30
2023-05-12T17:07:31.075Z,2.92
2023-05-12T17:09:59.124Z,3.30
2023-05-12T17:12:28.561Z,2.80
2023-05-12T17:15:07.018Z,3.05
2023-05-12T17:17:36.628Z,3.10
2023-05-12T17:20:05.934Z,3.42
2023-05-12T17:22:37.002Z,3.15
2023-05-12T17:25:05.502Z,4.20
2023-05-12T17:27:34.823Z,5.97
2023-05-12T17:30:04.364Z,6.60
2023-05-12T17:32:32.753Z,4.93
2023-05-12T17:35:00.715Z,4.40
2023-05-12T17:37:30.079Z,5.05
2023-05-12T17:39:58.094Z,5.07
2023-05-12T17:42:28.689Z,4.63
2023-05-12T17:44:58.097Z,4.83
2023-05-12T17:47:26.733Z,4.40
2023-05-12T17:49:54.894Z,4.85
2023-05-12T17:52:22.772Z,4.85
2023-05-12T17:54:54.741Z,5.00
2023-05-12T17:57:22.765Z,4.72
2023-05-12T17:59:50.928Z,4.50
2023-05-12T18:02:20.401Z,5.05
2023-05-12T18:04:48.591Z,4.55
2023-05-12T18:07:17.096Z,4.22
2023-05-12T18:09:45.074Z,4.43
2023-05-12T18:12:12.946Z,4.70
2023-05-12T18:14:41.105Z,4.10
2023-05-12T18:17:09.722Z,4.07
2023-05-12T18:19:38.967Z,4.10
2023-05-12T18:22:07.125Z,4.40
2023-05-12T18:24:35.391Z,3.92
2023-05-12T18:27:05.220Z,4.10
2023-05-12T18:29:34.451Z,4.00
2023-05-12T18:32:02.335Z,4.88
2023-05-12T18:34:30.700Z,5.00
2023-05-12T18:36:59.911Z,4.63
2023-05-12T18:39:27.849Z,5.40
2023-05-12T18:41:56.029Z,5.47
2023-05-12T18:44:23.982Z,5.95
2023-05-12T18:46:51.978Z,6.78
2023-05-12T18:49:19.962Z,7.03
2023-05-12T18:51:47.970Z,7.18
2023-05-12T18:54:17.191Z,7.85
2023-05-12T18:56:47.230Z,7.90
2023-05-12T18:59:15.296Z,8.00
2023-05-12T19:01:43.370Z,8.10
2023-05-12T19:04:11.577Z,7.53
2023-05-12T19:06:39.466Z,9.20
2023-05-12T19:09:07.915Z,8.50
2023-05-12T19:11:37.215Z,8.57
2023-05-12T19:14:05.112Z,8.65
2023-05-12T19:16:35.000Z,8.90
2023-05-12T19:19:03.403Z,8.60
2023-05-12T19:21:32.282Z,8.73
2023-05-12T19:24:01.149Z,8.70
2023-05-12T19:26:29.073Z,9.17
2023-05-12T19:28:58.332Z,8.77
2023-05-12T19:31:26.402Z,8.20
2023-05-12T19:33:54.450Z,9.05
2023-05-12T19:36:22.400Z,8.68
2023-05-12T19:38:50.327Z,8.10
2023-05-12T19:41:18.232Z,8.85
2023-05-12T19:43:46.094Z,8.63
2023-05-12T19:46:15.671Z,8.30
2023-05-12T19:48:43.752Z,8.30
2023-05-12T19:51:11.772Z,7.90
2023-05-12T19:53:39.757Z,7.80
2023-05-12T19:56:07.715Z,7.90
2023-05-12T19:58:35.621Z,8.32
2023-05-12T20:01:03.612Z,9.10
2023-05-12T20:03:33.059Z,8.20
2023-05-12T20:06:01.196Z,9.02
2023-05-12T20:08:29.039Z,7.93
2023-05-12T20:10:57.136Z,8.00
2023-05-12T20:13:25.276Z,8.10
2023-05-12T20:15:53.278Z,7.90
2023-05-12T20:18:23.189Z,8.15
2023-05-12T20:20:52.500Z,8.55
2023-05-12T20:23:20.391Z,7.60
2023-05-12T20:25:48.367Z,7.40
2023-05-12T20:28:16.314Z,7.47
2023-05-12T20:30:44.277Z,7.60
2023-05-12T20:33:12.241Z,7.65
2023-05-12T20:35:40.138Z,7.53
2023-05-12T20:38:09.401Z,7.90
2023-05-12T20:40:37.374Z,8.00
2023-05-12T20:43:05.328Z,7.75
2023-05-12T20:45:33.599Z,7.80
2023-05-12T20:48:01.651Z,7.40
2023-05-12T20:50:29.604Z,7.73
2023-05-12T20:52:58.085Z,7.40
2023-05-12T20:55:27.669Z,7.40
2023-05-12T20:57:55.963Z,7.30
2023-05-12T21:00:24.301Z,7.65
2023-05-12T21:02:52.727Z,6.90
2023-05-12T21:05:21.405Z,6.90
2023-05-12T21:07:50.097Z,7.30
2023-05-12T21:10:20.214Z,7.20
2023-05-12T21:12:50.283Z,8.35
2023-05-12T21:15:18.252Z,8.32
2023-05-12T21:17:46.491Z,8.35
2023-05-12T21:20:14.504Z,7.90
2023-05-12T21:22:42.695Z,7.88
2023-05-12T21:25:11.406Z,8.40
2023-05-12T21:27:41.298Z,8.15
2023-05-12T21:30:11.933Z,9.10
2023-05-12T21:32:40.405Z,8.50
2023-05-12T21:35:08.824Z,8.35
2023-05-12T21:37:36.859Z,8.43
2023-05-12T21:40:05.420Z,8.93
2023-05-12T21:42:33.387Z,9.63
2023-05-12T21:45:01.343Z,9.32
2023-05-12T21:47:30.641Z,9.30
2023-05-12T21:49:58.794Z,10.45
2023-05-12T21:52:26.916Z,10.27
2023-05-12T21:54:54.923Z,9.40
2023-05-12T21:57:22.888Z,9.40
2023-05-12T21:59:50.968Z,10.05
2023-05-12T22:02:18.910Z,9.63
2023-05-12T22:04:48.526Z,10.88
2023-05-12T22:07:16.614Z,10.80
2023-05-12T22:09:44.602Z,10.90
2023-05-12T22:12:15.574Z,11.45
2023-05-12T22:14:43.790Z,11.38
2023-05-12T22:17:12.187Z,11.93
2023-05-12T22:19:40.235Z,11.32
2023-05-12T22:22:09.635Z,10.90
2023-05-12T22:24:37.475Z,11.88
2023-05-12T22:27:05.820Z,11.38
2023-05-12T22:29:33.783Z,10.90
2023-05-12T22:32:01.795Z,11.20
2023-05-12T22:34:29.844Z,11.55
2023-05-12T22:36:57.884Z,11.70
2023-05-12T22:39:27.220Z,11.63
2023-05-12T22:41:55.137Z,11.85
2023-05-12T22:44:23.265Z,12.27
2023-05-12T22:46:51.359Z,12.00
2023-05-12T22:49:19.382Z,11.15
2023-05-12T22:51:47.430Z,11.25
2023-05-12T22:54:15.725Z,12.35
2023-05-12T22:56:45.216Z,12.20
2023-05-12T22:59:13.132Z,11.70
2023-05-12T23:01:41.290Z,11.50
2023-05-12T23:04:09.433Z,11.82
2023-05-12T23:06:37.436Z,11.50
2023-05-12T23:09:05.519Z,11.68
2023-05-12T23:11:33.489Z,11.00
2023-05-12T23:14:02.845Z,10.77
2023-05-12T23:16:30.883Z,11.43
2023-05-12T23:18:59.033Z,10.23
2023-05-12T23:21:27.057Z,11.35
2023-05-12T23:23:55.029Z,10.38
2023-05-12T23:26:23.058Z,10.27
2023-05-12T23:28:51.653Z,10.52
2023-05-12T23:31:20.966Z,10.32
2023-05-12T23:33:48.916Z,9.52
2023-05-12T23:36:16.890Z,10.15
2023-05-12T23:38:44.910Z,9.40
2023-05-12T23:41:12.828Z,9.93
2023-05-12T23:43:40.735Z,8.50
2023-05-12T23:46:08.867Z,9.38
2023-05-12T23:48:38.280Z,8.57
2023-05-12T23:51:06.290Z,8.38
2023-05-12T23:53:34.403Z,9.43
2023-05-12T23:56:03.072Z,8.77
2023-05-12T23:58:30.995Z,8.02
